sensor_id;sensor_type;location;lat;lon;timestamp;pressure;altitude;pressure_sealevel;temperature;humidity
26376;BME280;30544;42.196;24.336;2023-04-01T00:00:46;98295.78;;;12.54;nan
26376;BME280;30544;42.196;24.336;2023-04-01T00:03:13;98296.69;;;12.09;nan
26376;BME280;30544;42.196;24.336;2023-04-01T00:05:40;98299.66;;;12.53;nan
26376;BME280;30544;42.196;24.336;2023-04-01T00:08:06;98307.13;;;12.68;nan
26376;BME280;30544;42.196;24.336;2023-04-01T00:10:33;98313.59;;;12.43;nan
26376;BME280;30544;42.196;24.336;2023-04-01T00:13:00;98303.63;;;12.31;nan
26376;BME280;30544;42.196;24.336;2023-04-01T00:15:27;98310.25;;;12.51;nan
26376;BME280;30544;42.196;24.336;2023-04-01T00:17:55;98313.00;;;12.61;nan
26376;BME280;30544;42.196;24.336;2023-04-01T00:20:22;98311.06;;;12.56;nan
26376;BME280;30544;42.196;24.336;2023-04-01T00:22:49;98304.13;;;12.49;nan
26376;BME280;30544;42.196;24.336;2023-04-01T00:25:16;98301.94;;;12.46;nan
26376;BME280;30544;42.196;24.336;2023-04-01T00:27:44;98300.53;;;12.38;nan
26376;BME280;30544;42.196;24.336;2023-04-01T00:30:11;98303.00;;;12.55;nan
26376;BME280;30544;42.196;24.336;2023-04-01T00:32:38;98307.75;;;12.39;nan
26376;BME280;30544;42.196;24.336;2023-04-01T00:35:07;98307.47;;;12.51;nan
26376;BME280;30544;42.196;24.336;2023-04-01T00:37:36;98279.88;;;12.70;nan
26376;BME280;30544;42.196;24.336;2023-04-01T00:40:23;98296.00;;;12.78;nan
26376;BME280;30544;42.196;24.336;2023-04-01T00:42:50;98293.41;;;12.91;nan
26376;BME280;30544;42.196;24.336;2023-04-01T00:45:32;98293.69;;;12.95;nan
26376;BME280;30544;42.196;24.336;2023-04-01T00:48:01;98288.38;;;12.99;nan
26376;BME280;30544;42.196;24.336;2023-04-01T00:50:33;98286.94;;;13.06;nan
26376;BME280;30544;42.196;24.336;2023-04-01T00:53:01;98277.53;;;12.92;nan
26376;BME280;30544;42.196;24.336;2023-04-01T00:55:29;98291.19;;;12.93;nan
26376;BME280;30544;42.196;24.336;2023-04-01T00:57:58;98293.38;;;13.02;nan
26376;BME280;30544;42.196;24.336;2023-04-01T01:00:26;98302.81;;;13.06;nan
26376;BME280;30544;42.196;24.336;2023-04-01T01:02:53;98293.53;;;13.25;nan
26376;BME280;30544;42.196;24.336;2023-04-01T01:05:25;98288.28;;;13.19;nan
26376;BME280;30544;42.196;24.336;2023-04-01T01:08:01;98287.97;;;13.31;nan
26376;BME280;30544;42.196;24.336;2023-04-01T01:10:30;98284.94;;;13.17;nan
26376;BME280;30544;42.196;24.336;2023-04-01T01:13:05;98288.84;;;13.16;nan
26376;BME280;30544;42.196;24.336;2023-04-01T01:15:35;98287.72;;;13.27;nan
26376;BME280;30544;42.196;24.336;2023-04-01T01:18:07;98290.25;;;13.13;nan
26376;BME280;30544;42.196;24.336;2023-04-01T01:21:11;98287.75;;;13.12;nan
26376;BME280;30544;42.196;24.336;2023-04-01T01:24:13;98295.53;;;13.10;nan
26376;BME280;30544;42.196;24.336;2023-04-01T01:26:57;98280.19;;;13.22;nan
26376;BME280;30544;42.196;24.336;2023-04-01T01:29:40;98276.03;;;13.20;nan
26376;BME280;30544;42.196;24.336;2023-04-01T01:32:17;98269.94;;;13.18;nan
26376;BME280;30544;42.196;24.336;2023-04-01T01:34:51;98271.66;;;13.04;nan
26376;BME280;30544;42.196;24.336;2023-04-01T01:37:23;98259.34;;;13.15;nan
26376;BME280;30544;42.196;24.336;2023-04-01T01:39:54;98260.75;;;13.12;nan
26376;BME280;30544;42.196;24.336;2023-04-01T01:42:24;98262.78;;;12.97;nan
26376;BME280;30544;42.196;24.336;2023-04-01T01:44:52;98260.19;;;13.15;nan
26376;BME280;30544;42.196;24.336;2023-04-01T01:47:22;98253.31;;;12.98;nan
26376;BME280;30544;42.196;24.336;2023-04-01T01:49:51;98243.19;;;13.17;nan
26376;BME280;30544;42.196;24.336;2023-04-01T01:52:18;98241.91;;;12.99;nan
26376;BME280;30544;42.196;24.336;2023-04-01T01:54:50;98249.91;;;13.11;nan
26376;BME280;30544;42.196;24.336;2023-04-01T01:57:21;98252.13;;;13.14;nan
26376;BME280;30544;42.196;24.336;2023-04-01T01:59:49;98252.09;;;13.19;nan
26376;BME280;30544;42.196;24.336;2023-04-01T02:02:19;98256.84;;;13.08;nan
26376;BME280;30544;42.196;24.336;2023-04-01T02:04:47;98249.09;;;13.05;nan
26376;BME280;30544;42.196;24.336;2023-04-01T02:07:18;98230.81;;;12.94;nan
26376;BME280;30544;42.196;24.336;2023-04-01T02:09:46;98229.94;;;12.99;nan
26376;BME280;30544;42.196;24.336;2023-04-01T02:12:16;98235.41;;;13.19;nan
26376;BME280;30544;42.196;24.336;2023-04-01T02:14:47;98226.78;;;13.15;nan
26376;BME280;30544;42.196;24.336;2023-04-01T02:17:18;98230.53;;;12.90;nan
26376;BME280;30544;42.196;24.336;2023-04-01T02:19:48;98227.72;;;12.95;nan
26376;BME280;30544;42.196;24.336;2023-04-01T02:22:18;98241.28;;;13.07;nan
26376;BME280;30544;42.196;24.336;2023-04-01T02:24:48;98229.84;;;13.14;nan
26376;BME280;30544;42.196;24.336;2023-04-01T02:27:19;98220.38;;;13.15;nan
26376;BME280;30544;42.196;24.336;2023-04-01T02:29:46;98237.13;;;13.05;nan
26376;BME280;30544;42.196;24.336;2023-04-01T02:32:14;98239.13;;;12.99;nan
26376;BME280;30544;42.196;24.336;2023-04-01T02:34:43;98243.06;;;12.88;nan
26376;BME280;30544;42.196;24.336;2023-04-01T02:37:11;98237.16;;;13.00;nan
26376;BME280;30544;42.196;24.336;2023-04-01T02:39:38;98227.13;;;13.04;nan
26376;BME280;30544;42.196;24.336;2023-04-01T02:42:06;98228.56;;;12.96;nan
26376;BME280;30544;42.196;24.336;2023-04-01T02:44:34;98231.53;;;12.55;nan
26376;BME280;30544;42.196;24.336;2023-04-01T02:47:01;98224.81;;;12.67;nan
26376;BME280;30544;42.196;24.336;2023-04-01T02:49:28;98230.59;;;12.75;nan
26376;BME280;30544;42.196;24.336;2023-04-01T02:51:54;98232.06;;;12.62;nan
26376;BME280;30544;42.196;24.336;2023-04-01T02:54:21;98233.56;;;12.34;nan
26376;BME280;30544;42.196;24.336;2023-04-01T02:56:48;98225.53;;;12.28;nan
26376;BME280;30544;42.196;24.336;2023-04-01T02:59:15;98207.41;;;12.35;nan
26376;BME280;30544;42.196;24.336;2023-04-01T03:01:43;98205.47;;;12.36;nan
26376;BME280;30544;42.196;24.336;2023-04-01T03:04:10;98205.72;;;12.45;nan
26376;BME280;30544;42.196;24.336;2023-04-01T03:06:36;98202.66;;;12.46;nan
26376;BME280;30544;42.196;24.336;2023-04-01T03:09:03;98189.88;;;12.40;nan
26376;BME280;30544;42.196;24.336;2023-04-01T03:11:30;98196.38;;;12.15;nan
26376;BME280;30544;42.196;24.336;2023-04-01T03:13:57;98189.09;;;12.24;nan
26376;BME280;30544;42.196;24.336;2023-04-01T03:16:24;98191.88;;;12.24;nan
26376;BME280;30544;42.196;24.336;2023-04-01T03:18:52;98183.59;;;12.14;nan
26376;BME280;30544;42.196;24.336;2023-04-01T03:21:23;98187.81;;;11.96;nan
26376;BME280;30544;42.196;24.336;2023-04-01T03:23:50;98185.31;;;11.64;nan
26376;BME280;30544;42.196;24.336;2023-04-01T03:26:17;98197.53;;;11.68;nan
26376;BME280;30544;42.196;24.336;2023-04-01T03:28:44;98196.69;;;11.88;nan
26376;BME280;30544;42.196;24.336;2023-04-01T03:31:11;98195.34;;;11.81;nan
26376;BME280;30544;42.196;24.336;2023-04-01T03:33:38;98187.25;;;11.84;nan
26376;BME280;30544;42.196;24.336;2023-04-01T03:36:07;98189.44;;;11.92;nan
26376;BME280;30544;42.196;24.336;2023-04-01T03:38:34;98191.38;;;12.02;nan
26376;BME280;30544;42.196;24.336;2023-04-01T03:41:02;98183.91;;;11.87;nan
26376;BME280;30544;42.196;24.336;2023-04-01T03:43:30;98178.09;;;11.94;nan
26376;BME280;30544;42.196;24.336;2023-04-01T03:45:57;98182.56;;;11.49;nan
26376;BME280;30544;42.196;24.336;2023-04-01T03:48:24;98195.59;;;11.49;nan
26376;BME280;30544;42.196;24.336;2023-04-01T03:50:52;98209.19;;;11.40;nan
26376;BME280;30544;42.196;24.336;2023-04-01T03:53:20;98205.59;;;11.60;nan
26376;BME280;30544;42.196;24.336;2023-04-01T03:55:47;98195.88;;;11.67;nan
26376;BME280;30544;42.196;24.336;2023-04-01T03:58:13;98195.31;;;11.70;nan
26376;BME280;30544;42.196;24.336;2023-04-01T04:00:40;98206.69;;;11.74;nan
26376;BME280;30544;42.196;24.336;2023-04-01T04:03:07;98213.09;;;11.85;nan
26376;BME280;30544;42.196;24.336;2023-04-01T04:05:34;98210.06;;;11.81;nan
26376;BME280;30544;42.196;24.336;2023-04-01T04:08:01;98205.88;;;11.94;nan
26376;BME280;30544;42.196;24.336;2023-04-01T04:10:29;98207.22;;;12.01;nan
26376;BME280;30544;42.196;24.336;2023-04-01T04:12:56;98210.00;;;12.07;nan
26376;BME280;30544;42.196;24.336;2023-04-01T04:15:23;98200.78;;;12.21;nan
26376;BME280;30544;42.196;24.336;2023-04-01T04:17:49;98199.72;;;12.12;nan
26376;BME280;30544;42.196;24.336;2023-04-01T04:20:16;98205.03;;;11.98;nan
26376;BME280;30544;42.196;24.336;2023-04-01T04:22:43;98206.97;;;11.98;nan
26376;BME280;30544;42.196;24.336;2023-04-01T04:25:10;98199.47;;;11.78;nan
26376;BME280;30544;42.196;24.336;2023-04-01T04:27:38;98200.53;;;12.08;nan
26376;BME280;30544;42.196;24.336;2023-04-01T04:30:07;98205.81;;;12.09;nan
26376;BME280;30544;42.196;24.336;2023-04-01T04:32:34;98203.38;;;11.82;nan
26376;BME280;30544;42.196;24.336;2023-04-01T04:35:01;98207.81;;;11.93;nan
26376;BME280;30544;42.196;24.336;2023-04-01T04:37:31;98203.06;;;11.99;nan
26376;BME280;30544;42.196;24.336;2023-04-01T04:39:58;98220.88;;;11.83;nan
26376;BME280;30544;42.196;24.336;2023-04-01T04:42:25;98218.91;;;12.03;nan
26376;BME280;30544;42.196;24.336;2023-04-01T04:44:53;98213.63;;;12.02;nan
26376;BME280;30544;42.196;24.336;2023-04-01T04:47:20;98202.78;;;12.00;nan
26376;BME280;30544;42.196;24.336;2023-04-01T04:49:46;98199.16;;;12.10;nan
26376;BME280;30544;42.196;24.336;2023-04-01T04:52:13;98203.91;;;12.10;nan
26376;BME280;30544;42.196;24.336;2023-04-01T04:54:40;98194.16;;;12.07;nan
26376;BME280;30544;42.196;24.336;2023-04-01T04:57:07;98200.53;;;12.08;nan
26376;BME280;30544;42.196;24.336;2023-04-01T04:59:33;98194.69;;;12.19;nan
26376;BME280;30544;42.196;24.336;2023-04-01T05:02:02;98197.19;;;12.16;nan
26376;BME280;30544;42.196;24.336;2023-04-01T05:04:28;98202.50;;;12.12;nan
26376;BME280;30544;42.196;24.336;2023-04-01T05:06:55;98200.34;;;11.79;nan
26376;BME280;30544;42.196;24.336;2023-04-01T05:09:22;98187.47;;;12.08;nan
26376;BME280;30544;42.196;24.336;2023-04-01T05:11:49;98179.44;;;12.12;nan
26376;BME280;30544;42.196;24.336;2023-04-01T05:14:16;98183.53;;;12.24;nan
26376;BME280;30544;42.196;24.336;2023-04-01T05:16:43;98185.13;;;12.41;nan
26376;BME280;30544;42.196;24.336;2023-04-01T05:19:11;98177.63;;;12.41;nan
26376;BME280;30544;42.196;24.336;2023-04-01T05:21:38;98161.47;;;12.48;nan
26376;BME280;30544;42.196;24.336;2023-04-01T05:24:08;98167.63;;;12.40;nan
26376;BME280;30544;42.196;24.336;2023-04-01T05:26:35;98162.84;;;12.51;nan
26376;BME280;30544;42.196;24.336;2023-04-01T05:29:02;98166.19;;;12.53;nan
26376;BME280;30544;42.196;24.336;2023-04-01T05:31:29;98160.25;;;12.70;nan
26376;BME280;30544;42.196;24.336;2023-04-01T05:33:56;98157.22;;;12.66;nan
26376;BME280;30544;42.196;24.336;2023-04-01T05:36:24;98156.44;;;12.60;nan
26376;BME280;30544;42.196;24.336;2023-04-01T05:38:54;98148.00;;;12.71;nan
26376;BME280;30544;42.196;24.336;2023-04-01T05:41:24;98132.03;;;12.86;nan
26376;BME280;30544;42.196;24.336;2023-04-01T05:43:51;98127.84;;;12.94;nan
26376;BME280;30544;42.196;24.336;2023-04-01T05:46:18;98118.38;;;12.95;nan
26376;BME280;30544;42.196;24.336;2023-04-01T05:48:45;98112.94;;;13.14;nan
26376;BME280;30544;42.196;24.336;2023-04-01T05:51:12;98100.06;;;13.23;nan
26376;BME280;30544;42.196;24.336;2023-04-01T05:53:41;98082.97;;;13.35;nan
26376;BME280;30544;42.196;24.336;2023-04-01T05:56:08;98078.38;;;13.20;nan
26376;BME280;30544;42.196;24.336;2023-04-01T05:58:36;98078.53;;;13.34;nan
26376;BME280;30544;42.196;24.336;2023-04-01T06:01:04;98087.19;;;13.32;nan
26376;BME280;30544;42.196;24.336;2023-04-01T06:03:32;98082.91;;;13.45;nan
26376;BME280;30544;42.196;24.336;2023-04-01T06:05:58;98083.16;;;13.43;nan
26376;BME280;30544;42.196;24.336;2023-04-01T06:08:26;98067.56;;;13.42;nan
26376;BME280;30544;42.196;24.336;2023-04-01T06:11:04;98077.03;;;13.46;nan
26376;BME280;30544;42.196;24.336;2023-04-01T06:13:47;98089.81;;;13.47;nan
26376;BME280;30544;42.196;24.336;2023-04-01T06:16:27;98081.50;;;13.42;nan
26376;BME280;30544;42.196;24.336;2023-04-01T06:19:22;98073.84;;;13.29;nan
26376;BME280;30544;42.196;24.336;2023-04-01T06:22:08;98074.47;;;13.50;nan
26376;BME280;30544;42.196;24.336;2023-04-01T06:24:48;98072.28;;;13.47;nan
26376;BME280;30544;42.196;24.336;2023-04-01T06:27:30;98082.69;;;13.36;nan
26376;BME280;30544;42.196;24.336;2023-04-01T06:30:17;98074.91;;;13.33;nan
26376;BME280;30544;42.196;24.336;2023-04-01T06:32:58;98079.13;;;13.31;nan
26376;BME280;30544;42.196;24.336;2023-04-01T06:35:37;98074.03;;;13.38;nan
26376;BME280;30544;42.196;24.336;2023-04-01T06:38:37;98078.16;;;13.45;nan
26376;BME280;30544;42.196;24.336;2023-04-01T06:41:33;98076.38;;;13.25;nan
26376;BME280;30544;42.196;24.336;2023-04-01T06:44:16;98098.72;;;13.49;nan
26376;BME280;30544;42.196;24.336;2023-04-01T06:46:47;98087.94;;;13.67;nan
26376;BME280;30544;42.196;24.336;2023-04-01T06:49:28;98085.94;;;13.72;nan
26376;BME280;30544;42.196;24.336;2023-04-01T06:52:01;98072.22;;;13.76;nan
26376;BME280;30544;42.196;24.336;2023-04-01T06:54:33;98059.50;;;13.41;nan
26376;BME280;30544;42.196;24.336;2023-04-01T06:57:05;98052.91;;;13.84;nan
26376;BME280;30544;42.196;24.336;2023-04-01T06:59:37;98056.16;;;13.92;nan
26376;BME280;30544;42.196;24.336;2023-04-01T07:02:16;98070.38;;;13.95;nan
26376;BME280;30544;42.196;24.336;2023-04-01T07:04:48;98068.03;;;14.02;nan
26376;BME280;30544;42.196;24.336;2023-04-01T07:07:21;98062.88;;;14.33;nan
26376;BME280;30544;42.196;24.336;2023-04-01T07:09:54;98068.72;;;14.56;nan
26376;BME280;30544;42.196;24.336;2023-04-01T07:12:33;98066.38;;;14.44;nan
26376;BME280;30544;42.196;24.336;2023-04-01T07:15:14;98074.78;;;14.82;nan
26376;BME280;30544;42.196;24.336;2023-04-01T07:17:43;98077.63;;;14.77;nan
26376;BME280;30544;42.196;24.336;2023-04-01T07:20:16;98089.41;;;14.73;nan
26376;BME280;30544;42.196;24.336;2023-04-01T07:22:45;98065.81;;;14.66;nan
26376;BME280;30544;42.196;24.336;2023-04-01T07:25:15;98068.97;;;14.97;nan
26376;BME280;30544;42.196;24.336;2023-04-01T07:27:43;98066.44;;;15.14;nan
26376;BME280;30544;42.196;24.336;2023-04-01T07:30:16;98067.59;;;15.27;nan
26376;BME280;30544;42.196;24.336;2023-04-01T07:32:47;98060.00;;;15.46;nan
26376;BME280;30544;42.196;24.336;2023-04-01T07:35:24;98054.41;;;15.46;nan
26376;BME280;30544;42.196;24.336;2023-04-01T07:38:04;98067.47;;;15.51;nan
26376;BME280;30544;42.196;24.336;2023-04-01T07:40:39;98062.03;;;15.73;nan
26376;BME280;30544;42.196;24.336;2023-04-01T07:43:36;98028.94;;;15.80;nan
26376;BME280;30544;42.196;24.336;2023-04-01T07:46:17;98055.31;;;15.88;nan
26376;BME280;30544;42.196;24.336;2023-04-01T07:48:53;98050.44;;;15.93;nan
26376;BME280;30544;42.196;24.336;2023-04-01T07:51:27;98047.25;;;15.86;nan
26376;BME280;30544;42.196;24.336;2023-04-01T07:54:02;98048.38;;;15.85;nan
26376;BME280;30544;42.196;24.336;2023-04-01T07:56:37;98039.47;;;15.70;nan
26376;BME280;30544;42.196;24.336;2023-04-01T07:59:11;98046.06;;;15.60;nan
26376;BME280;30544;42.196;24.336;2023-04-01T08:01:50;98051.34;;;15.61;nan
26376;BME280;30544;42.196;24.336;2023-04-01T08:04:27;98036.38;;;15.85;nan
26376;BME280;30544;42.196;24.336;2023-04-01T08:07:04;98039.97;;;15.72;nan
26376;BME280;30544;42.196;24.336;2023-04-01T08:09:41;98031.28;;;15.73;nan
26376;BME280;30544;42.196;24.336;2023-04-01T08:12:19;98033.81;;;15.56;nan
26376;BME280;30544;42.196;24.336;2023-04-01T08:14:56;98019.78;;;15.61;nan
26376;BME280;30544;42.196;24.336;2023-04-01T08:17:32;98021.69;;;15.79;nan
26376;BME280;30544;42.196;24.336;2023-04-01T08:20:14;98020.41;;;15.72;nan
26376;BME280;30544;42.196;24.336;2023-04-01T08:22:46;98011.31;;;15.80;nan
26376;BME280;30544;42.196;24.336;2023-04-01T08:25:19;98012.94;;;15.94;nan
26376;BME280;30544;42.196;24.336;2023-04-01T08:27:49;98005.50;;;15.90;nan
26376;BME280;30544;42.196;24.336;2023-04-01T08:30:20;98006.94;;;16.15;nan
26376;BME280;30544;42.196;24.336;2023-04-01T08:32:53;97994.94;;;16.14;nan
26376;BME280;30544;42.196;24.336;2023-04-01T08:35:24;97977.84;;;16.16;nan
26376;BME280;30544;42.196;24.336;2023-04-01T08:37:54;97983.13;;;16.17;nan
26376;BME280;30544;42.196;24.336;2023-04-01T08:40:39;97965.75;;;16.29;nan
26376;BME280;30544;42.196;24.336;2023-04-01T08:43:13;97966.81;;;16.33;nan
26376;BME280;30544;42.196;24.336;2023-04-01T08:46:04;97965.41;;;16.44;nan
26376;BME280;30544;42.196;24.336;2023-04-01T08:48:47;97952.31;;;16.67;nan
26376;BME280;30544;42.196;24.336;2023-04-01T08:54:34;97947.03;;;16.88;nan
26376;BME280;30544;42.196;24.336;2023-04-01T08:57:13;97948.41;;;16.99;nan
26376;BME280;30544;42.196;24.336;2023-04-01T08:59:55;97932.28;;;17.05;nan
26376;BME280;30544;42.196;24.336;2023-04-01T09:02:43;97946.63;;;17.03;nan
26376;BME280;30544;42.196;24.336;2023-04-01T09:08:28;97932.81;;;17.07;nan
26376;BME280;30544;42.196;24.336;2023-04-01T09:11:06;97925.53;;;17.37;nan
26376;BME280;30544;42.196;24.336;2023-04-01T09:17:01;97913.75;;;17.57;nan
26376;BME280;30544;42.196;24.336;2023-04-01T09:19:48;97913.41;;;17.50;nan
26376;BME280;30544;42.196;24.336;2023-04-01T09:22:38;97924.63;;;17.19;nan
26376;BME280;30544;42.196;24.336;2023-04-01T09:25:26;97909.00;;;17.27;nan
26376;BME280;30544;42.196;24.336;2023-04-01T09:27:57;97916.19;;;17.10;nan
26376;BME280;30544;42.196;24.336;2023-04-01T09:30:37;97919.78;;;17.42;nan
26376;BME280;30544;42.196;24.336;2023-04-01T09:33:22;97925.03;;;17.35;nan
26376;BME280;30544;42.196;24.336;2023-04-01T09:36:04;97912.97;;;17.26;nan
26376;BME280;30544;42.196;24.336;2023-04-01T09:38:46;97908.72;;;17.37;nan
26376;BME280;30544;42.196;24.336;2023-04-01T09:41:19;97904.53;;;17.17;nan
26376;BME280;30544;42.196;24.336;2023-04-01T09:44:04;97895.63;;;16.84;nan
26376;BME280;30544;42.196;24.336;2023-04-01T09:46:52;97882.63;;;17.28;nan
26376;BME280;30544;42.196;24.336;2023-04-01T09:49:42;97872.78;;;17.30;nan
26376;BME280;30544;42.196;24.336;2023-04-01T09:52:24;97863.75;;;17.02;nan
26376;BME280;30544;42.196;24.336;2023-04-01T09:55:14;97865.97;;;17.14;nan
26376;BME280;30544;42.196;24.336;2023-04-01T10:01:11;97849.72;;;17.42;nan
26376;BME280;30544;42.196;24.336;2023-04-01T10:13:35;97822.31;;;17.96;nan
26376;BME280;30544;42.196;24.336;2023-04-01T10:16:32;97813.25;;;18.08;nan
26376;BME280;30544;42.196;24.336;2023-04-01T10:22:36;97792.94;;;18.19;nan
26376;BME280;30544;42.196;24.336;2023-04-01T10:25:35;97761.69;;;18.47;nan
26376;BME280;30544;42.196;24.336;2023-04-01T10:34:53;97768.75;;;18.70;nan
26376;BME280;30544;42.196;24.336;2023-04-01T10:38:06;97771.47;;;18.23;nan
26376;BME280;30544;42.196;24.336;2023-04-01T10:40:56;97766.31;;;18.51;nan
26376;BME280;30544;42.196;24.336;2023-04-01T10:50:13;97733.31;;;18.40;nan
26376;BME280;30544;42.196;24.336;2023-04-01T10:59:31;97719.50;;;18.26;nan
26376;BME280;30544;42.196;24.336;2023-04-01T11:05:42;97716.28;;;18.45;nan
26376;BME280;30544;42.196;24.336;2023-04-01T11:17:51;97695.00;;;18.44;nan
26376;BME280;30544;42.196;24.336;2023-04-01T11:20:45;97696.91;;;18.22;nan
26376;BME280;30544;42.196;24.336;2023-04-01T11:23:33;97692.88;;;18.49;nan
26376;BME280;30544;42.196;24.336;2023-04-01T11:26:14;97683.91;;;18.65;nan
26376;BME280;30544;42.196;24.336;2023-04-01T11:29:30;97679.22;;;18.77;nan
26376;BME280;30544;42.196;24.336;2023-04-01T11:32:09;97677.13;;;18.95;nan
26376;BME280;30544;42.196;24.336;2023-04-01T11:34:56;97675.53;;;19.15;nan
26376;BME280;30544;42.196;24.336;2023-04-01T11:37:35;97679.81;;;19.12;nan
26376;BME280;30544;42.196;24.336;2023-04-01T11:40:15;97681.91;;;18.94;nan
26376;BME280;30544;42.196;24.336;2023-04-01T11:42:52;97675.53;;;19.15;nan
26376;BME280;30544;42.196;24.336;2023-04-01T11:45:30;97671.16;;;19.26;nan
26376;BME280;30544;42.196;24.336;2023-04-01T11:48:23;97658.34;;;19.16;nan
26376;BME280;30544;42.196;24.336;2023-04-01T11:51:06;97666.69;;;19.25;nan
26376;BME280;30544;42.196;24.336;2023-04-01T11:53:44;97662.50;;;19.31;nan
26376;BME280;30544;42.196;24.336;2023-04-01T11:56:29;97657.91;;;19.47;nan
26376;BME280;30544;42.196;24.336;2023-04-01T12:02:20;97648.88;;;19.63;nan
26376;BME280;30544;42.196;24.336;2023-04-01T12:05:12;97637.00;;;19.78;nan
26376;BME280;30544;42.196;24.336;2023-04-01T12:07:53;97644.66;;;19.90;nan
26376;BME280;30544;42.196;24.336;2023-04-01T12:10:29;97619.22;;;19.86;nan
26376;BME280;30544;42.196;24.336;2023-04-01T12:13:04;97625.72;;;20.11;nan
26376;BME280;30544;42.196;24.336;2023-04-01T12:15:48;97624.91;;;20.10;nan
26376;BME280;30544;42.196;24.336;2023-04-01T12:18:23;97615.75;;;20.01;nan
26376;BME280;30544;42.196;24.336;2023-04-01T12:20:54;97603.78;;;19.92;nan
26376;BME280;30544;42.196;24.336;2023-04-01T12:23:39;97593.56;;;19.88;nan
26376;BME280;30544;42.196;24.336;2023-04-01T12:26:35;97581.84;;;19.98;nan
26376;BME280;30544;42.196;24.336;2023-04-01T12:29:23;97598.75;;;19.65;nan
26376;BME280;30544;42.196;24.336;2023-04-01T12:31:59;97618.59;;;19.80;nan
26376;BME280;30544;42.196;24.336;2023-04-01T12:37:26;97596.22;;;20.17;nan
26376;BME280;30544;42.196;24.336;2023-04-01T12:40:09;97582.50;;;20.28;nan
26376;BME280;30544;42.196;24.336;2023-04-01T12:42:58;97549.22;;;20.42;nan
26376;BME280;30544;42.196;24.336;2023-04-01T12:45:30;97536.44;;;20.45;nan
26376;BME280;30544;42.196;24.336;2023-04-01T12:48:10;97546.06;;;20.43;nan
26376;BME280;30544;42.196;24.336;2023-04-01T12:51:01;97572.78;;;20.62;nan
26376;BME280;30544;42.196;24.336;2023-04-01T12:53:56;97567.63;;;20.39;nan
26376;BME280;30544;42.196;24.336;2023-04-01T12:56:33;97564.84;;;20.52;nan
26376;BME280;30544;42.196;24.336;2023-04-01T12:59:19;97572.44;;;20.39;nan
26376;BME280;30544;42.196;24.336;2023-04-01T13:02:07;97582.41;;;20.49;nan
26376;BME280;30544;42.196;24.336;2023-04-01T13:04:56;97602.19;;;20.16;nan
26376;BME280;30544;42.196;24.336;2023-04-01T13:07:42;97661.38;;;19.74;nan
26376;BME280;30544;42.196;24.336;2023-04-01T13:10:20;97721.25;;;19.74;nan
26376;BME280;30544;42.196;24.336;2023-04-01T13:13:04;97716.44;;;19.24;nan
26376;BME280;30544;42.196;24.336;2023-04-01T13:15:41;97697.13;;;18.55;nan
26376;BME280;30544;42.196;24.336;2023-04-01T13:18:21;97737.13;;;18.35;nan
26376;BME280;30544;42.196;24.336;2023-04-01T13:20:58;97747.88;;;18.24;nan
26376;BME280;30544;42.196;24.336;2023-04-01T13:23:35;97729.22;;;18.28;nan
26376;BME280;30544;42.196;24.336;2023-04-01T13:26:13;97734.66;;;18.33;nan
26376;BME280;30544;42.196;24.336;2023-04-01T13:28:43;97721.63;;;18.29;nan
26376;BME280;30544;42.196;24.336;2023-04-01T13:31:26;97728.75;;;18.09;nan
26376;BME280;30544;42.196;24.336;2023-04-01T13:34:04;97766.06;;;17.75;nan
26376;BME280;30544;42.196;24.336;2023-04-01T13:36:41;97773.88;;;16.50;nan
26376;BME280;30544;42.196;24.336;2023-04-01T13:39:22;97766.75;;;16.67;nan
26376;BME280;30544;42.196;24.336;2023-04-01T13:42:05;97785.63;;;16.30;nan
26376;BME280;30544;42.196;24.336;2023-04-01T13:44:41;97787.94;;;15.56;nan
26376;BME280;30544;42.196;24.336;2023-04-01T13:50:46;97783.22;;;15.43;nan
26376;BME280;30544;42.196;24.336;2023-04-01T13:56:17;97742.41;;;15.55;nan
26376;BME280;30544;42.196;24.336;2023-04-01T13:58:57;97733.16;;;15.46;nan
26376;BME280;30544;42.196;24.336;2023-04-01T14:01:33;97717.91;;;15.52;nan
26376;BME280;30544;42.196;24.336;2023-04-01T14:04:29;97708.19;;;15.50;nan
26376;BME280;30544;42.196;24.336;2023-04-01T14:07:08;97719.69;;;15.84;nan
26376;BME280;30544;42.196;24.336;2023-04-01T14:10:11;97722.00;;;15.91;nan
26376;BME280;30544;42.196;24.336;2023-04-01T14:12:42;97723.94;;;16.35;nan
26376;BME280;30544;42.196;24.336;2023-04-01T14:15:21;97722.47;;;16.38;nan
26376;BME280;30544;42.196;24.336;2023-04-01T14:18:00;97711.78;;;16.71;nan
26376;BME280;30544;42.196;24.336;2023-04-01T14:20:36;97704.06;;;16.76;nan
26376;BME280;30544;42.196;24.336;2023-04-01T14:23:37;97723.16;;;16.74;nan
26376;BME280;30544;42.196;24.336;2023-04-01T14:26:49;97745.00;;;16.64;nan
26376;BME280;30544;42.196;24.336;2023-04-01T14:29:24;97755.13;;;16.51;nan
26376;BME280;30544;42.196;24.336;2023-04-01T14:32:05;97749.44;;;16.65;nan
26376;BME280;30544;42.196;24.336;2023-04-01T14:34:44;97748.28;;;16.66;nan
26376;BME280;30544;42.196;24.336;2023-04-01T14:37:30;97738.03;;;16.92;nan
26376;BME280;30544;42.196;24.336;2023-04-01T14:40:21;97724.41;;;16.99;nan
26376;BME280;30544;42.196;24.336;2023-04-01T14:43:10;97710.72;;;16.98;nan
26376;BME280;30544;42.196;24.336;2023-04-01T14:46:03;97710.72;;;16.98;nan
26376;BME280;30544;42.196;24.336;2023-04-01T14:48:34;97717.69;;;17.18;nan
26376;BME280;30544;42.196;24.336;2023-04-01T14:51:09;97708.22;;;16.96;nan
26376;BME280;30544;42.196;24.336;2023-04-01T14:53:42;97703.31;;;17.10;nan
26376;BME280;30544;42.196;24.336;2023-04-01T14:56:11;97705.63;;;17.08;nan
26376;BME280;30544;42.196;24.336;2023-04-01T14:58:43;97721.19;;;17.32;nan
26376;BME280;30544;42.196;24.336;2023-04-01T15:01:25;97714.91;;;17.35;nan
26376;BME280;30544;42.196;24.336;2023-04-01T15:03:59;97716.56;;;17.36;nan